Texas Logo

Katy, TX Single Family Real Estate Listings

2694 Total Real Estate Listings * Click on table heading to sort
Date Posted Property Type Style Address Price Living Area Lot Size Price/Sq Ft.
2018-07-23 Single Family Traditional 20034 Little Big Horn Drive Katy, TX 77449 $229,000 1,510 sq. ft. 6,970 sq. ft. $152
2018-07-23 Single Family Traditional 3022 Crestbrook Bend Lane Katy, TX 77449 $230,000 3,380 sq. ft. 6,534 sq. ft. $68
2018-07-22 Single Family Traditional 20115 Devereaux Court Katy, TX 77450 $257,850 2,372 sq. ft. 8,276 sq. ft. $109
2018-07-22 Single Family Traditional 25406 Melody Canyon Court Katy, TX 77494 $270,000 2,069 sq. ft. 8,712 sq. ft. $130
2018-07-22 Single Family Traditional 3322 Mallard Run Court Katy, TX 77494 $789,900 4,956 sq. ft. 15,682 sq. ft. $159
2018-07-22 Single Family Traditional 25134 Roesner Lane Katy, TX 77494 $439,000 1,560 sq. ft. 43,560 sq. ft. $281
2018-07-22 Single Family Traditional 3428 Jan Court Katy, TX 77493 $189,900 1,855 sq. ft. 6,534 sq. ft. $102
2018-07-22 Single Family Mediterranean 24914 Florina Ranch Drive Katy, TX 77494 $374,900 3,677 sq. ft. 7,841 sq. ft. $102
2018-07-22 Single Family Ranch; Traditional 3230 Laureumont Lane Katy, TX 77494 $385,000 2,496 sq. ft. 8,712 sq. ft. $154
2018-07-22 Single Family Traditional 2722 Orchard Creek Lane Katy, TX 77494 $217,000 1,761 sq. ft. 6,098 sq. ft. $123
2018-07-22 Single Family Traditional 23814 Shaw Perry Ln Katy, TX 77493 $234,900 3,252 sq. ft. 6,098 sq. ft. $72
2018-07-21 Single Family Victorian 2810 Elm Circle Katy, TX 77493 $575,000 5,529 sq. ft. 55,757 sq. ft. $104
2018-07-21 Single Family Traditional 29006 Oldfield Court Katy, TX 77494 $280,000 2,598 sq. ft. 5,663 sq. ft. $108
2018-07-21 Single Family Traditional 9511 Lily Glen Lane Katy, TX 77494 $575,000 4,800 sq. ft. 11,326 sq. ft. $120
2018-07-21 Single Family Traditional 28234 Helmsman Knolls Drive Katy, TX 77494 $309,900 2,787 sq. ft. 6,098 sq. ft. $111
2018-07-21 Single Family Traditional 1515 Crystal Meadow Place Katy, TX 77494 $385,000 3,052 sq. ft. 8,276 sq. ft. $126
2018-07-21 Single Family Traditional 23230 Lidstone Point Court Katy, TX 77494 $235,000 2,530 sq. ft. 7,841 sq. ft. $93
2018-07-21 Single Family Traditional 2711 Silk Tree Lane Katy, TX 77449 $195,000 1,980 sq. ft. 6,534 sq. ft. $98
2018-07-21 Single Family Traditional 22815 Rachels Manor Drive Katy, TX 77494 $419,888 3,626 sq. ft. 8,276 sq. ft. $116
2018-07-21 Single Family Traditional 1243 Park Knoll Lane Katy, TX 77450 $170,000 1,410 sq. ft. 6,534 sq. ft. $121
2018-07-21 Single Family Traditional 22214 Baron Cove Lane Katy, TX 77450 $493,000 3,651 sq. ft. 10,890 sq. ft. $135
2018-07-21 Single Family Traditional 4522 Red Yucca Drive Katy, TX 77494 $345,000 3,094 sq. ft. $112
2018-07-21 Single Family Traditional 4439 Calvet Forest Drive Katy, TX 77494 $385,000 2,707 sq. ft. 6,970 sq. ft. $142
2018-07-21 Single Family Traditional 26711 Cedardale Pines Drive Katy, TX 77494 $499,900 4,196 sq. ft. 10,454 sq. ft. $119
2018-07-21 Single Family Traditional 10419 Prescott Glen Lane Katy, TX 77494 $1,100,000 5,568 sq. ft. 21,344 sq. ft. $198
2018-07-21 Single Family Traditional 5035 Mabry Stream Court Katy, TX 77449 $235,000 2,695 sq. ft. 4,792 sq. ft. $87
2018-07-21 Single Family Traditional 5703 Overton Park Drive Katy, TX 77450 $235,000 2,229 sq. ft. 6,534 sq. ft. $105
2018-07-21 Single Family Traditional 2942 Fair Chase Drive Katy, TX 77494 $315,000 2,980 sq. ft. 5,663 sq. ft. $106
2018-07-20 Single Family Contemporary/Modern; Traditional 20142 Bluecreek Ridge Katy, TX 77449 $225,000 2,255 sq. ft. 5,227 sq. ft. $100
2018-07-20 Single Family Traditional 23510 Peacock Gap Lane Katy, TX 77494 $260,000 2,605 sq. ft. 6,970 sq. ft. $100
2018-07-20 Single Family Traditional 5919 Silkbay Meadow Drive Katy, TX 77494 $689,000 4,336 sq. ft. 10,890 sq. ft. $159
2018-07-20 Single Family Traditional 3511 Artesian Springs Court Katy, TX 77494 $600,000 4,800 sq. ft. 11,761 sq. ft. $125
2018-07-20 Single Family Traditional 25506 Kearsley Drive Katy, TX 77494 $550,000 3,802 sq. ft. 22,651 sq. ft. $145
2018-07-20 Single Family Traditional 27235 Cheshire Edge Lane Katy, TX 77494 $525,000 4,093 sq. ft. 11,761 sq. ft. $128
2018-07-20 Single Family Traditional 20302 Hickory Chase Court Katy, TX 77450 $474,500 3,834 sq. ft. 6,534 sq. ft. $124
2018-07-20 Single Family Traditional 28722 Havenport Drive Katy, TX 77494 $369,000 2,843 sq. ft. 9,148 sq. ft. $130
2018-07-20 Single Family Traditional 2007 Autumn Fern Drive Katy, TX 77450 $255,000 2,538 sq. ft. 5,227 sq. ft. $100
2018-07-20 Single Family Traditional 21227 Park York Drive Katy, TX 77450 $229,900 2,266 sq. ft. 8,276 sq. ft. $101
2018-07-20 Single Family Traditional 21415 Park Willow Drive Katy, TX 77450 $182,500 2,109 sq. ft. 7,841 sq. ft. $87
2018-07-20 Single Family Traditional 20723 Castle Bend Drive Katy, TX 77450 $349,900 3,287 sq. ft. 6,970 sq. ft. $106
2018-07-20 Single Family Traditional 4607 Valley Rill Road Katy, TX 77449 $333,190 4,036 sq. ft. $83
2018-07-20 Single Family Traditional 2714 Mcdonough Way Katy, TX 77494 $364,990 3,383 sq. ft. 9,583 sq. ft. $108
2018-07-20 Single Family Traditional 7027 Cornflower Lane Katy, TX 77494 $270,000 2,256 sq. ft. 6,970 sq. ft. $120
2018-07-20 Single Family Traditional 20002 Wedgewood Gable Way Katy, TX 77449 $214,490 1,931 sq. ft. $111
2018-07-20 Single Family Traditional 20014 Wedgewood Gable Way Katy, TX 77449 $227,790 2,667 sq. ft. $85
2018-07-20 Single Family English; Traditional 20107 Britannia Drive Katy, TX 77450 $290,000 2,962 sq. ft. 9,583 sq. ft. $98
2018-07-20 Single Family Ranch; Traditional 1234 Brook Grove Drive Katy, TX 77450 $215,000 2,050 sq. ft. 7,405 sq. ft. $105
2018-07-20 Single Family Traditional 21414 Park Downe Lane Katy, TX 77450 $235,900 2,511 sq. ft. 7,841 sq. ft. $94
2018-07-20 Single Family Ranch 19222 Winding Branch Drive Katy, TX 77449 $180,000 1,553 sq. ft. 6,098 sq. ft. $116
2018-07-20 Single Family Traditional 19911 Hoppers Creek Drive Katy, TX 77449 $145,000 2,377 sq. ft. 6,098 sq. ft. $61
2018-07-20 Single Family Traditional 24514 Lakecrest Bend Drive Katy, TX 77493 $216,000 1,983 sq. ft. 5,663 sq. ft. $109
2018-07-20 Single Family Traditional 3626 Knights Hollow Court Katy, TX 77494 $250,000 2,388 sq. ft. 6,534 sq. ft. $105
2018-07-20 Single Family Traditional 3803 Briarlilly Park Circle Katy, TX 77493 $309,990 2,900 sq. ft. 7,841 sq. ft. $107
2018-07-20 Single Family Traditional 2006 Wildbrook Canyon Lane Katy, TX 77449 $200,000 2,152 sq. ft. 4,792 sq. ft. $93
2018-07-20 Single Family Traditional 22414 Caroline Cove Ln Katy, TX 77450 $329,000 3,023 sq. ft. 8,276 sq. ft. $109
2018-07-20 Single Family Traditional 1523 Morning Park Drive Katy, TX 77494 $360,000 3,362 sq. ft. 6,970 sq. ft. $107
2018-07-20 Single Family Traditional 4318 Cannondale Lane Katy, TX 77450 $499,000 4,027 sq. ft. 11,761 sq. ft. $124
2018-07-20 Single Family Traditional 4622 Magnolia Summit Lane Katy, TX 77494 $495,000 2,960 sq. ft. 8,276 sq. ft. $167
2018-07-20 Single Family Traditional 6223 Santiago Mountain Court Katy, TX 77450 $299,900 2,692 sq. ft. 11,761 sq. ft. $111
2018-07-20 Single Family Traditional 20038 Mason Creek Drive Katy, TX 77449 $229,900 3,265 sq. ft. 11,761 sq. ft. $70
2018-07-20 Single Family Traditional 22615 Coriander Drive Katy, TX 77450 $209,000 1,495 sq. ft. 7,841 sq. ft. $140
2018-07-20 Single Family Traditional 19422 Colony Trail Lane Katy, TX 77449 $200,000 2,260 sq. ft. 6,534 sq. ft. $88
2018-07-20 Single Family Traditional 5119 Manorfield Drive Katy, TX 77449 $154,000 1,524 sq. ft. 7,405 sq. ft. $101
2018-07-20 Single Family Traditional 4911 Rainy Heath Court Katy, TX 77449 $205,000 1,995 sq. ft. 10,454 sq. ft. $103
2018-07-20 Single Family Traditional 2518 Rosebluff Court Katy, TX 77494 $337,450 3,123 sq. ft. 8,712 sq. ft. $108
2018-07-20 Single Family Traditional 4807 Cottage Stone Lane Katy, TX 77449 $195,000 1,844 sq. ft. 6,970 sq. ft. $106
2018-07-20 Single Family Traditional 22903 Emily Trace Katy, TX 77494 $398,800 3,244 sq. ft. 10,019 sq. ft. $123
2018-07-20 Single Family Traditional 6923 Champion Trail Katy, TX 77493 $499,900 2,975 sq. ft. 17,860 sq. ft. $168
2018-07-20 Single Family Traditional 5562 Casa Calvet Drive Katy, TX 77449 $239,990 2,779 sq. ft. 6,098 sq. ft. $86
2018-07-19 Single Family Traditional 10214 Kessler Cove Lane Katy, TX 77494 $369,900 3,685 sq. ft. 7,405 sq. ft. $100
2018-07-19 Single Family Traditional 3822 Emerald Branch Lane Katy, TX 77450 $575,650 4,202 sq. ft. 10,890 sq. ft. $137
2018-07-19 Single Family Traditional 6023 Prescott Run Lane Katy, TX 77494 $273,990 2,636 sq. ft. 5,227 sq. ft. $104
2018-07-19 Single Family Traditional 23331 Allister Court Katy, TX 77494 $349,500 3,014 sq. ft. 7,841 sq. ft. $116
2018-07-19 Single Family Traditional 20014 Meadow Arbor Court Katy, TX 77450 $475,000 3,881 sq. ft. 10,890 sq. ft. $122
2018-07-19 Single Family English 20307 Monkswood Drive Katy, TX 77450 $268,500 2,300 sq. ft. 7,841 sq. ft. $117
2018-07-19 Single Family Traditional 4823 San Gregorio Katy, TX 77493 $226,990 1,864 sq. ft. $122
2018-07-19 Single Family Traditional 21110 Bridgemeadows Lane Katy, TX 77449 $169,900 1,608 sq. ft. 5,663 sq. ft. $106
2018-07-19 Single Family Traditional 2010 Parco Verde Circle Katy, TX 77450 $545,000 4,451 sq. ft. 12,197 sq. ft. $122
2018-07-19 Single Family Contemporary/Modern; Ranch 1002 East Avenue Katy, TX 77493 $699,900 3,566 sq. ft. 43,124 sq. ft. $196
2018-07-19 Single Family Ranch; Traditional 26506 Reflection Sky Court Katy, TX 77494 $441,960 3,480 sq. ft. 13,939 sq. ft. $127
2018-07-19 Single Family Traditional 24822 Diamond Run Court Katy, TX 77494 $264,900 2,091 sq. ft. 7,841 sq. ft. $127
2018-07-19 Single Family Traditional 2718 Rice Mill Avenue Katy, TX 77493 $275,000 2,802 sq. ft. 6,098 sq. ft. $98
2018-07-19 Single Family Traditional 319 Applewhite Drive Katy, TX 77450 $210,000 1,872 sq. ft. 7,405 sq. ft. $112
2018-07-19 Single Family Traditional 10407 Prescott Glen Lane Katy, TX 77494 $825,000 5,431 sq. ft. 14,375 sq. ft. $152
2018-07-19 Single Family Traditional 3326 Bluebonnet Meadows Lane Katy, TX 77084 $220,000 2,779 sq. ft. 6,534 sq. ft. $79
2018-07-19 Single Family Traditional 22006 Red River Drive Katy, TX 77450 $199,900 2,005 sq. ft. 10,019 sq. ft. $100
2018-07-19 Single Family Traditional 6307 Diamond Rock Drive Katy, TX 77449 $165,000 1,624 sq. ft. 6,098 sq. ft. $102
2018-07-19 Single Family Traditional 28502 Hayden Park Drive Katy, TX 77494 $650,000 4,968 sq. ft. 24,829 sq. ft. $131
2018-07-19 Single Family Traditional 22714 Water Edge Lane Katy, TX 77494 $350,000 2,925 sq. ft. 12,197 sq. ft. $120
2018-07-19 Single Family Traditional 2403 Blue Water Way Drive Katy, TX 77494 $349,000 3,561 sq. ft. 7,841 sq. ft. $98
2018-07-19 Single Family Traditional 3306 Rainport Drive Katy, TX 77449 $199,900 1,525 sq. ft. 6,098 sq. ft. $131
2018-07-19 Single Family Ranch; Traditional 21730 Ashford Grove Katy, TX 77450 $199,999 1,765 sq. ft. $113
2018-07-19 Single Family Traditional 3510 Heartland Key Katy, TX 77494 $320,000 3,063 sq. ft. $104
2018-07-19 Single Family Traditional 26902 Henson Falls Drive Katy, TX 77494 $259,000 2,423 sq. ft. 5,227 sq. ft. $107
2018-07-19 Single Family Traditional 21511 Santa Clara Drive Katy, TX 77450 $293,000 2,172 sq. ft. $135
2018-07-19 Single Family Traditional 4915 San Gregorio Katy, TX 77493 $247,990 2,232 sq. ft. $111
2018-07-19 Single Family Traditional 4630 Terrazza Verde Katy, TX 77493 $270,990 2,575 sq. ft. $105
2018-07-19 Single Family Traditional 22122 Kenlake Drive Katy, TX 77450 $197,900 1,710 sq. ft. 6,534 sq. ft. $116
2018-07-19 Single Family Traditional 6517 Patricia Lane Katy, TX 77493 $255,000 2,057 sq. ft. 8,712 sq. ft. $124
2018-07-19 Single Family Traditional 21110 Jade Bluff Lane Katy, TX 77450 $289,900 2,418 sq. ft. 7,405 sq. ft. $120
2018-07-19 Single Family Traditional 19406 Concho Springs Drive Katy, TX 77449 $231,000 2,601 sq. ft. 10,890 sq. ft. $89
2018-07-19 Single Family Traditional 27902 Bracken Hurst Drive Katy, TX 77494 $596,244 4,464 sq. ft. 11,761 sq. ft. $134
2018-07-19 Single Family Traditional 4215 Middleoak Grove Lane Katy, TX 77494 $390,000 3,530 sq. ft. 7,405 sq. ft. $110
2018-07-19 Single Family Traditional 26230 Grace Hills Lane Katy, TX 77494 $384,900 3,953 sq. ft. 7,841 sq. ft. $97
2018-07-19 Single Family Traditional 1814 Grayson Lakes Boulevard Katy, TX 77494 $450,000 4,028 sq. ft. 11,761 sq. ft. $112
2018-07-19 Single Family Contemporary/Modern 6314 Deer Run Crossing Katy, TX 77493 $325,000 2,596 sq. ft. 6,534 sq. ft. $125
2018-07-19 Single Family Traditional 3214 Bandera Run Lane Katy, TX 77494 $295,000 2,700 sq. ft. 6,098 sq. ft. $109
2018-07-19 Single Family Traditional 23214 Spruce Falls Court Katy, TX 77494 $260,000 2,710 sq. ft. 7,841 sq. ft. $96
2018-07-19 Single Family Traditional 6706 Albion Cresent Drive Katy, TX 77449 $214,995 1,831 sq. ft. 5,663 sq. ft. $117
2018-07-19 Single Family Traditional 20110 Yorkpine Court Katy, TX 77450 $370,000 3,284 sq. ft. 10,454 sq. ft. $113
2018-07-19 Single Family Traditional 4803 Sanderford Court Katy, TX 77494 $255,000 2,247 sq. ft. 7,841 sq. ft. $113
2018-07-19 Single Family Traditional 20411 Drakewood Drive Katy, TX 77449 $220,000 2,597 sq. ft. 7,405 sq. ft. $85
2018-07-19 Single Family Traditional 1607 Eberhart Star Court Katy, TX 77494 $245,000 2,760 sq. ft. 6,534 sq. ft. $89
2018-07-18 Single Family Traditional 26207 Bolton Trail Lane Katy, TX 77494 $657,000 4,528 sq. ft. 9,583 sq. ft. $145
2018-07-18 Single Family Traditional 3303 Canyon Links Drive Katy, TX 77450 $427,000 3,564 sq. ft. 9,583 sq. ft. $120
2018-07-18 Single Family Traditional 6307 Founding Drive Katy, TX 77449 $177,000 1,842 sq. ft. 5,663 sq. ft. $96
2018-07-18 Single Family Traditional 21335 Park Brook Drive Katy, TX 77450 $229,000 2,178 sq. ft. 7,405 sq. ft. $105
2018-07-18 Single Family Traditional 2003 Arbor Cove Katy, TX 77494 $513,000 3,724 sq. ft. 15,246 sq. ft. $138
2018-07-18 Single Family Traditional 24102 Kingdom Isle Lane Katy, TX 77493 $245,940 2,107 sq. ft. 6,534 sq. ft. $117
2018-07-18 Single Family Traditional 5310 Baroness Lane Katy, TX 77493 $261,000 2,169 sq. ft. 10,019 sq. ft. $120
2018-07-18 Single Family Traditional 28103 Helmsman Knolls Drive Katy, TX 77494 $265,000 2,145 sq. ft. 14,810 sq. ft. $124
2018-07-18 Single Family Traditional 20414 Pomegranate Lane Katy, TX 77449 $199,950 2,670 sq. ft. 6,534 sq. ft. $75
2018-07-18 Single Family Traditional 29502 Huntswood Trail Lane Katy, TX 77494 $512,963 4,064 sq. ft. 13,068 sq. ft. $126
2018-07-18 Single Family Traditional 2506 Haven Hill Drive Katy, TX 77494 $500,000 4,370 sq. ft. 9,148 sq. ft. $114
2018-07-18 Single Family Traditional 23710 Daintree Place Katy, TX 77493 $377,900 2,598 sq. ft. 6,534 sq. ft. $145
2018-07-18 Single Family Traditional 23519 Verona River Katy, TX 77493 $265,440 2,247 sq. ft. $118
2018-07-18 Single Family Traditional 20110 Dering Court Katy, TX 77450 $240,000 2,707 sq. ft. 8,276 sq. ft. $89
2018-07-18 Single Family Traditional 23818 Hopewell Drive Katy, TX 77493 $215,000 2,496 sq. ft. 6,534 sq. ft. $86
2018-07-18 Single Family Traditional 3522 Lindenfield Drive Katy, TX 77449 $225,000 2,112 sq. ft. 8,712 sq. ft. $107
2018-07-18 Single Family Traditional 23710 Banning Point Court Katy, TX 77494 $474,900 3,648 sq. ft. 9,148 sq. ft. $130
2018-07-18 Single Family Traditional 711 Enford Court Katy, TX 77450 $306,000 2,749 sq. ft. 8,276 sq. ft. $111
2018-07-18 Single Family Traditional 5519 Casa Calvet Drive Katy, TX 77449 $225,000 2,381 sq. ft. 5,663 sq. ft. $94
2018-07-18 Single Family Traditional 1031 Grand Junction Drive Katy, TX 77450 $169,900 1,891 sq. ft. 6,970 sq. ft. $90
2018-07-18 Single Family Traditional 1319 Breezy Bend Drive Katy, TX 77494 $525,000 5,141 sq. ft. 10,454 sq. ft. $102
2018-07-18 Single Family Traditional 10414 Mossback Pine Road Katy, TX 77494 $429,900 3,374 sq. ft. 8,276 sq. ft. $127
2018-07-18 Single Family Traditional 2303 Millerton Lane Katy, TX 77450 $320,000 3,203 sq. ft. 6,970 sq. ft. $100
2018-07-18 Single Family Traditional 27419 Hurston Glen Lane Katy, TX 77494 $599,900 4,440 sq. ft. 12,197 sq. ft. $135
2018-07-18 Single Family Ranch; Traditional 26338 Cottage Springs Court Katy, TX 77494 $369,000 3,408 sq. ft. 11,326 sq. ft. $108
2018-07-18 Single Family Traditional 3539 Lakearies Lane Katy, TX 77449 $174,900 1,951 sq. ft. 6,970 sq. ft. $90
2018-07-18 Single Family Traditional 923 Arrow Lake Drive Katy, TX 77450 $185,900 1,409 sq. ft. 7,405 sq. ft. $132
2018-07-18 Single Family Traditional 24514 Alexander Crossing Lane Katy, TX 77494 $545,000 4,101 sq. ft. 9,583 sq. ft. $133
2018-07-18 Single Family Traditional 9527 Nightingale Hill Lane Katy, TX 77494 $329,000 2,604 sq. ft. 6,970 sq. ft. $126
2018-07-18 Single Family Traditional 23602 Shadow Creek Court Katy, TX 77494 $318,000 3,151 sq. ft. 12,197 sq. ft. $101
2018-07-18 Single Family Traditional 26306 Groveton Court Katy, TX 77494 $280,000 2,793 sq. ft. 5,663 sq. ft. $100
2018-07-18 Single Family Ranch 29526 Jarvis Bay Katy, TX 77494 $218,990 1,701 sq. ft. $129
2018-07-18 Single Family Traditional 19506 Bear Springs Drive Katy, TX 77449 $235,000 2,631 sq. ft. 7,405 sq. ft. $89
2018-07-18 Single Family Traditional 21230 Park Rock Lane Katy, TX 77450 $190,000 1,665 sq. ft. 7,841 sq. ft. $114
2018-07-18 Single Family Ranch 3 Roesner Woods Court Katy, TX 77494 $623,000 3,325 sq. ft. 17,860 sq. ft. $187
2018-07-18 Single Family Traditional 8807 Peach Oak Crossing Katy, TX 77494 $375,000 2,947 sq. ft. 7,841 sq. ft. $127
2018-07-18 Single Family Traditional 3734 Landon Park Drive Katy, TX 77449 $199,999 1,894 sq. ft. 5,663 sq. ft. $106
2018-07-18 Single Family Traditional 23811 Norton House Lane Katy, TX 77493 $189,000 1,636 sq. ft. 6,534 sq. ft. $116
2018-07-18 Single Family Traditional 1522 Morning Park Drive Katy, TX 77494 $319,500 2,738 sq. ft. 8,276 sq. ft. $117
2018-07-18 Single Family Traditional 130 Buckeye Drive Katy, TX 77450 $205,000 1,963 sq. ft. 10,890 sq. ft. $104
2018-07-18 Single Family Traditional 3231 Amber Meadow Drive Katy, TX 77449 $215,000 2,532 sq. ft. 5,227 sq. ft. $85
2018-07-18 Single Family Traditional 2206 Vinemead Court Katy, TX 77450 $540,000 4,044 sq. ft. 15,246 sq. ft. $134
2018-07-18 Single Family Traditional 21018 Kelliwood Grove Lane Katy, TX 77450 $399,000 4,237 sq. ft. 17,860 sq. ft. $94
2018-07-18 Single Family Traditional 25126 Squire Knoll Street Katy, TX 77493 $254,995 2,646 sq. ft. $96
2018-07-18 Single Family Traditional 4911 Sandalia Court Katy, TX 77494 $250,000 2,294 sq. ft. 6,970 sq. ft. $109
2018-07-18 Single Family Contemporary/Modern 6018 Gablestone Lane Katy, TX 77450 $285,000 2,425 sq. ft. 6,970 sq. ft. $118
2018-07-18 Single Family Contemporary/Modern 20510 Indian Grove Lane Katy, TX 77450 $255,500 1,838 sq. ft. 6,970 sq. ft. $139
2018-07-18 Single Family Traditional 1631 Chilton Lane Katy, TX 77493 $179,900 1,602 sq. ft. 7,405 sq. ft. $112
2018-07-17 Single Family Traditional 25615 Durango Falls Lane Katy, TX 77494 $385,000 3,530 sq. ft. 7,841 sq. ft. $109
2018-07-17 Single Family Traditional 19934 Kellicreek Drive Katy, TX 77450 $435,000 3,899 sq. ft. 10,454 sq. ft. $112
2018-07-17 Single Family Contemporary/Modern 3339 Windsor Ranch Ln Katy, TX 77494 $287,500 2,331 sq. ft. 7,405 sq. ft. $123
2018-07-17 Single Family Traditional 451 Gentilly Drive Katy, TX 77450 $204,900 1,818 sq. ft. 8,712 sq. ft. $113
2018-07-17 Single Family Traditional 20210 20210 S Pittsford Drive Katy, TX 77450 $249,700 2,148 sq. ft. 8,712 sq. ft. $116
2018-07-17 Single Family Traditional 3618 Winding Point Lane Katy, TX 77494 $395,000 3,500 sq. ft. 9,148 sq. ft. $113
2018-07-17 Single Family Traditional 23311 Verona View Lane Katy, TX 77493 $299,000 2,696 sq. ft. 8,712 sq. ft. $111
2018-07-17 Single Family Traditional 6423 Kingston Valley Trail Katy, TX 77493 $506,900 3,791 sq. ft. 8,276 sq. ft. $134
2018-07-17 Single Family Traditional 28127 Middlewater View Lane Katy, TX 77494 $443,999 4,267 sq. ft. 10,454 sq. ft. $104
2018-07-17 Single Family Traditional 27631 Merchant Hills Lane Katy, TX 77494 $440,840 3,518 sq. ft. 10,019 sq. ft. $125
2018-07-17 Single Family Traditional 6407 Providence River Lane Katy, TX 77943 $358,990 3,304 sq. ft. 7,841 sq. ft. $109
2018-07-17 Single Family Traditional 26514 Marble Point Ln Katy, TX 77494 $225,000 2,172 sq. ft. 5,227 sq. ft. $104
2018-07-17 Single Family Traditional 19427 Kadabra Drive Katy, TX 77449 $155,000 1,221 sq. ft. 4,792 sq. ft. $127
2018-07-17 Single Family Traditional 25906 Kyler Cove Lane Katy, TX 77494 $574,500 4,399 sq. ft. 10,454 sq. ft. $131
2018-07-17 Single Family Contemporary/Modern; Other Style; Ranch; Traditional 1530 Brook Grove Drive Katy, TX 77450 $247,000 2,273 sq. ft. 6,098 sq. ft. $109
2018-07-17 Single Family Traditional 6914 Monarch Lake Lane Katy, TX 77494 $584,300 4,129 sq. ft. 11,326 sq. ft. $142
2018-07-17 Single Family Traditional 23226 Twilight Oaks Ct Katy, TX 77493 $227,990 1,694 sq. ft. 6,534 sq. ft. $135
2018-07-17 Single Family Traditional 6209 Fawnlake Drive Katy, TX 77493 $290,000 3,101 sq. ft. 8,712 sq. ft. $94
2018-07-17 Single Family Traditional 22607 Elsinore Drive Katy, TX 77450 $189,900 1,569 sq. ft. 7,405 sq. ft. $121
2018-07-17 Single Family Traditional 6422 Kingston Valley Trail Katy, TX 77449 $497,900 3,794 sq. ft. 10,890 sq. ft. $131
2018-07-17 Single Family Traditional 23826 Providence Glen Trail Katy, TX 77493 $319,610 2,709 sq. ft. 6,098 sq. ft. $118
2018-07-17 Single Family Traditional 5303 Gerent Lane Katy, TX 77493 $352,015 2,385 sq. ft. $148
2018-07-17 Single Family Traditional 23222 Twilight Oaks Ct Katy, TX 77493 $246,990 2,027 sq. ft. 6,534 sq. ft. $122
2018-07-17 Single Family Traditional 715 Herrick Ct Katy, TX 77450 $294,000 2,576 sq. ft. 8,276 sq. ft. $114
2018-07-17 Single Family Traditional 22918 Arcola Manor Ct Katy, TX 77493 $236,990 1,715 sq. ft. 10,890 sq. ft. $138
2018-07-17 Single Family Traditional 5243 Regal Gem Lane Katy, TX 77493 $296,122 2,032 sq. ft. $146
2018-07-17 Single Family Traditional 23230 Twilight Oaks Court Katy, TX 77493 $224,990 1,715 sq. ft. 6,534 sq. ft. $131
2018-07-17 Single Family Traditional 22931 Arcola Manor Court Katy, TX 77493 $205,990 1,529 sq. ft. 6,098 sq. ft. $135
2018-07-17 Single Family Traditional 3203 Rocky Crest Drive Katy, TX 77449 $150,000 1,474 sq. ft. 7,405 sq. ft. $102
2018-07-17 Single Family Traditional 24210 Ivory Sunset Lane Katy, TX 77493 $328,391 2,654 sq. ft. $124
2018-07-17 Single Family Traditional 24730 Valleylight Drive Katy, TX 77494 $290,000 2,640 sq. ft. 10,019 sq. ft. $110
2018-07-17 Single Family Traditional 26511 Cresent Cove Lane Katy, TX 77494 $380,000 3,758 sq. ft. 11,761 sq. ft. $101
2018-07-17 Single Family Traditional 22406 Unicorns Horn Lane Katy, TX 77449 $229,999 2,445 sq. ft. 8,712 sq. ft. $94
2018-07-17 Single Family Traditional 22830 Roberts Run Lane Katy, TX 77494 $454,900 4,134 sq. ft. 9,583 sq. ft. $110
2018-07-16 Single Family Traditional 22522 Country Cove Lane Katy, TX 77494 $465,000 3,158 sq. ft. 20,909 sq. ft. $147
2018-07-16 Single Family Traditional 4723 Ivy Meadow Katy, TX 77449 $179,000 1,930 sq. ft. 5,663 sq. ft. $93
2018-07-16 Single Family Traditional 9723 Dover Springs Court Katy, TX 77494 $350,000 3,009 sq. ft. 8,712 sq. ft. $116
2018-07-16 Single Family Traditional 1931 Boren Drive Katy, TX 77493 $199,900 1,644 sq. ft. 5,663 sq. ft. $122
2018-07-16 Single Family Contemporary/Modern 2623 2623 Sable Ridge Lane Katy, TX 77494 $239,000 2,370 sq. ft. 6,098 sq. ft. $101
2018-07-16 Single Family Traditional 2842 Walnut Crest Drive Katy, TX 77494 $335,000 3,022 sq. ft. 8,712 sq. ft. $111
2018-07-16 Single Family Traditional 5506 Royal Sash Ln Katy, TX 77493 $280,000 2,677 sq. ft. 6,098 sq. ft. $105
2018-07-16 Single Family Traditional 707 Enford Court Katy, TX 77450 $255,000 2,098 sq. ft. 8,712 sq. ft. $122
2018-07-16 Single Family Traditional 20134 Bluecreek Ridge Katy, TX 77449 $159,900 1,485 sq. ft. 5,227 sq. ft. $108
2018-07-16 Single Family Traditional 3827 Keatings Lagoon Katy, TX 77494 $295,435 1,904 sq. ft. $155
2018-07-16 Single Family Traditional 19418 Asterglen Court Katy, TX 77449 $249,999 3,208 sq. ft. 6,970 sq. ft. $78
2018-07-16 Single Family Traditional 27806 Bandera Glen Katy, TX 77494 $450,000 3,716 sq. ft. 8,276 sq. ft. $121
2018-07-16 Single Family Colonial 27131 Postwood Manor Court Katy, TX 77494 $228,000 1,678 sq. ft. 5,227 sq. ft. $136
2018-07-16 Single Family Traditional 22410 Teagarden Court Katy, TX 77450 $250,000 2,018 sq. ft. 6,970 sq. ft. $124
2018-07-16 Single Family Contemporary/Modern 26531 Marble Falls Bnd Katy, TX 77494 $209,000 1,906 sq. ft. $110
2018-07-16 Single Family Traditional 22923 Garden Canyon Drive Katy, TX 77450 $229,000 2,232 sq. ft. 7,405 sq. ft. $103
2018-07-16 Single Family Traditional 23510 Bainford Court Katy, TX 77494 $430,000 3,486 sq. ft. 9,148 sq. ft. $123
2018-07-16 Single Family Traditional 2319 Golden Mews Lane Katy, TX 77494 $389,900 4,198 sq. ft. 8,276 sq. ft. $93
2018-07-16 Single Family Traditional 203 Laxton Court Katy, TX 77450 $239,900 3,070 sq. ft. 8,276 sq. ft. $78
2018-07-16 Single Family Traditional 1702 Park Ridge Drive Katy, TX 77450 $204,900 2,310 sq. ft. 8,712 sq. ft. $89
2018-07-16 Single Family Traditional 1726 Bugle Run Drive Katy, TX 77449 $153,000 1,058 sq. ft. 6,098 sq. ft. $145
2018-07-16 Single Family Traditional 19423 Asterglen Court Katy, TX 77449 $220,000 2,010 sq. ft. 7,405 sq. ft. $109
2018-07-16 Single Family Traditional 24506 Royal Pike Drive Katy, TX 77493 $254,900 1,771 sq. ft. 5,663 sq. ft. $144
2018-07-16 Single Family Traditional 5606 Delfren Lane Katy, TX 77493 $205,000 1,365 sq. ft. 11,326 sq. ft. $150
2018-07-16 Single Family Traditional 28006 Nobbe Hollow Drive Katy, TX 77494 $474,999 3,449 sq. ft. 9,583 sq. ft. $138
2018-07-16 Single Family Traditional 1234 Ragsdale Lane Katy, TX 77494 $259,900 2,235 sq. ft. 7,841 sq. ft. $116
2018-07-16 Single Family Ranch; Traditional 3019 Saddlebrook Lane Katy, TX 77494 $895,000 3,911 sq. ft. 54,450 sq. ft. $229
2018-07-16 Single Family Traditional 2250 Brookdale Bend Katy, TX 77494 $489,050 3,508 sq. ft. $139
2018-07-16 Single Family Traditional 24006 Griffin House Lane Katy, TX 77493 $239,900 2,592 sq. ft. 6,098 sq. ft. $93
2018-07-16 Single Family Contemporary/Modern 5911 Deep South Drive Katy, TX 77449 $179,900 2,372 sq. ft. 4,792 sq. ft. $76
2018-07-16 Single Family Traditional 21442 Park York Drive Katy, TX 77450 $206,500 2,109 sq. ft. 7,841 sq. ft. $98
2018-07-16 Single Family Traditional 23003 Crystal Downs Court Katy, TX 77450 $455,000 3,482 sq. ft. 9,148 sq. ft. $131
2018-07-15 Single Family Traditional 19431 Haystream Drive Katy, TX 77449 $170,000 2,045 sq. ft. 6,534 sq. ft. $83
2018-07-15 Single Family Traditional 3815 Keatings Lagoon Court Katy, TX 77494 $293,990 2,062 sq. ft. $143
2018-07-15 Single Family Victorian 3607 Blushing Hollow Drive Drive Katy, TX 77494 $447,000 3,153 sq. ft. 12,197 sq. ft. $142
2018-07-15 Single Family Traditional 3023 Josephine Falls Court Katy, TX 77494 $234,600 2,053 sq. ft. 6,970 sq. ft. $114
2018-07-15 Single Family Traditional 6002 Durango Mist Lane Katy, TX 77449 $194,500 2,558 sq. ft. 8,712 sq. ft. $76
2018-07-15 Single Family Traditional 19618 Buckland Park Drive Katy, TX 77449 $169,900 1,600 sq. ft. 4,792 sq. ft. $106
2018-07-15 Single Family Traditional 20715 Sandy Bay Lane Katy, TX 77449 $200,000 1,946 sq. ft. 6,098 sq. ft. $103
2018-07-15 Single Family Traditional 21006 Welwick Court Katy, TX 77449 $189,900 1,896 sq. ft. 12,632 sq. ft. $100
2018-07-15 Single Family Traditional 6455 Dylan Springs Lane Katy, TX 77450 $375,000 3,076 sq. ft. 14,810 sq. ft. $122
2018-07-15 Single Family Traditional 22634 Capitol Landing Lane Katy, TX 77449 $149,900 1,275 sq. ft. 7,405 sq. ft. $118
2018-07-14 Single Family Traditional 26823 Wolfs Hill Lane Katy, TX 77494 $450,000 4,546 sq. ft. 10,019 sq. ft. $99
2018-07-14 Single Family Traditional 2902 Amber Cliff Drive Katy, TX 77449 $139,900 1,235 sq. ft. 4,792 sq. ft. $113
2018-07-14 Single Family Traditional 28246 Crossprairie Drive Katy, TX 77494 $235,000 1,705 sq. ft. 11,761 sq. ft. $138
2018-07-14 Single Family Traditional 27030 Franklin Park Drive Katy, TX 77494 $435,000 3,761 sq. ft. 7,405 sq. ft. $116
2018-07-14 Single Family Traditional 1314 Sand Pines Katy, TX 77494 $245,000 2,085 sq. ft. 6,970 sq. ft. $118
2018-07-14 Single Family Traditional 3815 Bowie Bend Lane Katy, TX 77494 $340,000 3,567 sq. ft. 8,712 sq. ft. $95
2018-07-14 Single Family Traditional 2103 Banister Cove Katy, TX 77494 $375,000 3,300 sq. ft. 10,454 sq. ft. $114
2018-07-14 Single Family Contemporary/Modern 21634 Shallow Glen Lane Katy, TX 77450 $229,500 1,627 sq. ft. 4,356 sq. ft. $141
2018-07-14 Single Family Traditional 20618 Wood Rain Court Katy, TX 77449 $215,000 1,735 sq. ft. 4,792 sq. ft. $124
2018-07-14 Single Family Traditional 26910 Wooded Canyon Drive Katy, TX 77494 $430,000 3,873 sq. ft. 10,454 sq. ft. $111
2018-07-14 Single Family Traditional 3119 Plum Knoll Court Katy, TX 77084 $249,000 3,042 sq. ft. 8,276 sq. ft. $82
2018-07-14 Single Family Traditional 20802 Figurine Court Katy, TX 77450 $315,000 2,399 sq. ft. 10,019 sq. ft. $131
2018-07-14 Single Family Traditional 20018 Silver Rock Drive Katy, TX 77449 $184,900 1,818 sq. ft. 5,663 sq. ft. $102
2018-07-14 Single Family Mediterranean 2503 Sara Ridge Lane Katy, TX 77450 $1,625,000 6,394 sq. ft. 64,904 sq. ft. $254
2018-07-14 Single Family Traditional 28414 Stonestead Drive Katy, TX 77494 $364,000 3,282 sq. ft. 7,841 sq. ft. $111
2018-07-14 Single Family Traditional 24011 Cane Fields Road Katy, TX 77493 $279,950 2,680 sq. ft. 7,841 sq. ft. $104
2018-07-14 Single Family Traditional 1414 Sullivan Springs Drive Katy, TX 77494 $245,000 2,083 sq. ft. 6,534 sq. ft. $118
2018-07-14 Single Family Traditional 3306 Mallard Run Court Katy, TX 77494 $789,000 5,578 sq. ft. 11,326 sq. ft. $141
2018-07-14 Single Family Traditional 3011 Mcdonough Way Katy, TX 77494 $262,000 2,599 sq. ft. 6,970 sq. ft. $101
2018-07-14 Single Family Contemporary/Modern; Mediterranean; Traditional 7914 Salta Verde Point Katy, TX 77494 $825,000 4,505 sq. ft. 11,761 sq. ft. $183
2018-07-14 Single Family Traditional 3414 Afton Forest Lane Katy, TX 77449 $214,000 2,970 sq. ft. 5,227 sq. ft. $72
2018-07-13 Single Family Traditional 7610 Courtney Manor Lane Katy, TX 77494 $565,000 4,427 sq. ft. 12,197 sq. ft. $128
2018-07-13 Single Family Other Style 25406 Terrace Arbor Lane Katy, TX 77494 $950,000 5,293 sq. ft. 19,166 sq. ft. $179
2018-07-13 Single Family Traditional 2806 Frasier Knolls Court Katy, TX 77494 $305,200 2,895 sq. ft. 11,761 sq. ft. $105
2018-07-13 Single Family Traditional 6014 Deep South Drive Katy, TX 77449 $215,000 2,780 sq. ft. 5,227 sq. ft. $77
2018-07-13 Single Family Traditional 3551 Lakearies Lane Katy, TX 77449 $215,000 2,454 sq. ft. 7,405 sq. ft. $88
2018-07-13 Single Family Traditional 21207 Cimarron Parkway Katy, TX 77450 $199,900 2,141 sq. ft. 7,405 sq. ft. $93
2018-07-13 Single Family Traditional 19207 Cypress Canyon Drive Katy, TX 77449 $110,000 1,203 sq. ft. 4,792 sq. ft. $91
2018-07-13 Single Family Traditional 23734 San Barria Drive Katy, TX 77493 $330,000 4,301 sq. ft. 6,534 sq. ft. $77
2018-07-13 Single Family Traditional 6931 Morning Sky Katy, TX 77494 $299,999 2,717 sq. ft. 8,276 sq. ft. $110
2018-07-13 Single Family Traditional 3523 Hawkins Glen Lane Katy, TX 77449 $300,000 3,236 sq. ft. 7,405 sq. ft. $93
2018-07-13 Single Family Contemporary/Modern; Traditional 22602 Auburn Valley Lane Katy, TX 77449 $229,999 1,974 sq. ft. 7,405 sq. ft. $117
2018-07-13 Single Family Traditional 4426 Brinton Saddle Lane Katy, TX 77449 $245,000 3,266 sq. ft. 5,227 sq. ft. $75
2018-07-13 Single Family Traditional 4418 Stolz Trail Katy, TX 77493 $238,000 2,111 sq. ft. 6,534 sq. ft. $113
2018-07-13 Single Family Traditional 25123 Calico Woods Lane Katy, TX 77494 $234,990 1,821 sq. ft. 8,712 sq. ft. $129
2018-07-13 Single Family Contemporary/Modern 21330 Park Bluff Drive Katy, TX 77450 $180,000 1,793 sq. ft. 7,841 sq. ft. $100
2018-07-13 Single Family Traditional 19118 Canaras Court Katy, TX 77449 $150,000 1,515 sq. ft. 4,792 sq. ft. $99
2018-07-13 Single Family Traditional 26638 Godfrey Cove Court Katy, TX 77494 $439,000 3,810 sq. ft. 8,712 sq. ft. $115
2018-07-13 Single Family Traditional 3414 Yasmine Ranch Drive Katy, TX 77494 $268,900 2,574 sq. ft. 6,970 sq. ft. $104
2018-07-13 Single Family Traditional 2610 Ash Haven Lane Katy, TX 77449 $269,500 3,139 sq. ft. 6,970 sq. ft. $86
2018-07-13 Single Family Traditional 21006 Katy Plains Court Katy, TX 77449 $232,995 1,889 sq. ft. $123
2018-07-13 Single Family Contemporary/Modern 1926 Lenora Court Katy, TX 77493 $241,900 2,421 sq. ft. 5,227 sq. ft. $100
2018-07-13 Single Family Traditional 2422 Seahorse Bend Drive Katy, TX 77449 $225,000 2,044 sq. ft. 6,534 sq. ft. $110
2018-07-13 Single Family Traditional 26407 Green Heron Drive Katy, TX 77494 $245,000 1,960 sq. ft. 5,663 sq. ft. $125
2018-07-13 Single Family Traditional 1426 Kelliwood Oaks Drive Katy, TX 77450 $510,000 4,368 sq. ft. 11,326 sq. ft. $117
2018-07-13 Single Family Traditional 24123 Cane Fields Road Katy, TX 77493 $257,900 2,638 sq. ft. 7,405 sq. ft. $98
2018-07-13 Single Family Contemporary/Modern; Traditional 3622 Fieldthorne Court Katy, TX 77450 $394,000 3,303 sq. ft. 9,148 sq. ft. $119
2018-07-13 Single Family Contemporary/Modern 26107 Green Stem Path Katy, TX 77494 $259,000 2,099 sq. ft. 6,970 sq. ft. $123
2018-07-13 Single Family Traditional 22306 Albee Drive Katy, TX 77449 $215,000 2,338 sq. ft. 6,970 sq. ft. $92
2018-07-13 Single Family Traditional 25806 Orchard Knoll Lane Katy, TX 77494 $310,000 2,354 sq. ft. 6,098 sq. ft. $132
2018-07-13 Single Family Traditional 20419 Blue Beech Drive Katy, TX 77449 $159,900 1,313 sq. ft. 6,098 sq. ft. $122
2018-07-13 Single Family Traditional 7718 Courtney Manor Lane Katy, TX 77494 $517,500 3,698 sq. ft. 10,019 sq. ft. $140
2018-07-13 Single Family Contemporary/Modern 21819 Trailwood Manor Lane Katy, TX 77449 $209,500 2,310 sq. ft. 5,663 sq. ft. $91
2018-07-13 Single Family Traditional 21507 Elm Hurst Lane Katy, TX 77450 $219,500 1,966 sq. ft. 7,405 sq. ft. $112
2018-07-12 Single Family Contemporary/Modern 24522 Cornell Park Lane Katy, TX 77494 $239,500 2,065 sq. ft. $116
2018-07-12 Single Family Ranch; Traditional 22311 Merrymount Drive Katy, TX 77450 $199,000 1,665 sq. ft. 7,841 sq. ft. $120
2018-07-12 Single Family Traditional 28010 Harper Creek Lane Katy, TX 77494 $350,000 2,923 sq. ft. 7,841 sq. ft. $120
2018-07-12 Single Family Traditional 27123 Bell Mare Drive Katy, TX 77494 $410,000 3,670 sq. ft. 7,405 sq. ft. $112
2018-07-12 Single Family Traditional 19623 Plantation Tree Court Katy, TX 77449 $150,000 1,512 sq. ft. 5,227 sq. ft. $99
2018-07-12 Single Family Ranch 21318 Park Brook Dr Katy, TX 77450 $219,000 2,145 sq. ft. 7,405 sq. ft. $102
2018-07-12 Single Family Traditional 22823 Elsinore Drive Katy, TX 77450 $219,900 1,978 sq. ft. 8,276 sq. ft. $111
2018-07-12 Single Family Traditional 23906 River Place Drive Katy, TX 77494 $277,500 2,730 sq. ft. 6,970 sq. ft. $102
2018-07-12 Single Family Traditional 4307 Vineyard Mdw Lane Katy, TX 77449 $205,000 2,466 sq. ft. 6,534 sq. ft. $83
2018-07-12 Single Family Traditional 21730 Park Brook Drive Katy, TX 77450 $170,000 1,406 sq. ft. 7,405 sq. ft. $121
2018-07-12 Single Family Traditional 2627 Open Prairie Katy, TX 77493 $497,286 3,239 sq. ft. 8,276 sq. ft. $154
2018-07-12 Single Family Traditional 1834 Golden Cape Drive Katy, TX 77494 $353,757 2,491 sq. ft. $142
2018-07-12 Single Family Traditional 6110 Trafalgar Court Katy, TX 77449 $265,000 3,618 sq. ft. 14,810 sq. ft. $73
2018-07-12 Single Family Traditional 20922 Whitehaven Bluff Katy, TX 77449 $183,990 1,442 sq. ft. $128
2018-07-12 Single Family Traditional 19514 Tuscola Lane Katy, TX 77449 $199,900 2,832 sq. ft. 7,405 sq. ft. $71
2018-07-12 Single Family Traditional 23738 Kingston Ridge Way Katy, TX 77493 $428,900 3,261 sq. ft. 10,019 sq. ft. $132
2018-07-12 Single Family Traditional 5706 Willowford Court Katy, TX 77494 $389,000 3,496 sq. ft. 13,504 sq. ft. $111
2018-07-12 Single Family Traditional 27903 Walsh Crossing Drive Katy, TX 77494 $440,000 3,451 sq. ft. 11,761 sq. ft. $128
2018-07-12 Single Family Traditional 20706 Chapel Glen Court Katy, TX 77450 $349,000 2,869 sq. ft. 8,276 sq. ft. $122
2018-07-12 Single Family Ranch; Traditional 6710 Prairie Village Drive Katy, TX 77449 $130,000 1,326 sq. ft. 6,098 sq. ft. $98
2018-07-12 Single Family Traditional 8518 Iron Tree Lane Katy, TX 77494 $550,000 3,924 sq. ft. 17,424 sq. ft. $140
2018-07-12 Single Family Traditional 4610 Ambrosia Springs Lane Katy, TX 77494 $425,000 3,158 sq. ft. 9,583 sq. ft. $135
2018-07-12 Single Family Traditional 20114 Wickham Court Katy, TX 77450 $305,000 2,821 sq. ft. 8,276 sq. ft. $108
2018-07-12 Single Family Traditional 3307 Elk Ridge Lane Katy, TX 77494 $310,000 3,052 sq. ft. 10,454 sq. ft. $102
2018-07-12 Single Family Traditional 24919 Lakecrest Park Drive Katy, TX 77493 $290,975 2,980 sq. ft. 6,970 sq. ft. $98
2018-07-12 Single Family Traditional 23131 Tranquil Springs Lane Katy, TX 77494 $275,000 2,566 sq. ft. 7,841 sq. ft. $107
2018-07-12 Single Family Traditional 22211 Woodrose Katy, TX 77450 $192,500 1,816 sq. ft. 9,148 sq. ft. $106
2018-07-12 Single Family Traditional 2907 Bobby Jones Road Katy, TX 77494 $379,500 3,427 sq. ft. 7,841 sq. ft. $111
2018-07-12 Single Family Traditional 5615 Everhart Manor Lane Katy, TX 77494 $360,000 3,269 sq. ft. 8,276 sq. ft. $110
2018-07-12 Single Family Traditional 4315 Romiti Court Katy, TX 77493 $299,999 3,570 sq. ft. 9,148 sq. ft. $84
2018-07-12 Single Family Traditional 5011 Royal Regiment Lane Katy, TX 77493 $233,503 1,744 sq. ft. $134
2018-07-12 Single Family Traditional 2402 Planters House Lane Katy, TX 77449 $130,000 1,104 sq. ft. 12,632 sq. ft. $118
2018-07-12 Single Family Traditional 6215 Lone Prairie Way Katy, TX 77449 $139,900 1,288 sq. ft. 2,614 sq. ft. $109
2018-07-12 Single Family Traditional 1503 Rustic Knolls Drive Katy, TX 77450 $499,500 4,477 sq. ft. 8,712 sq. ft. $112
2018-07-12 Single Family Traditional 5010 Royal Regiment Lane Katy, TX 77493 $223,575 1,512 sq. ft. $148
2018-07-12 Single Family Traditional 24015 Noble Darcy Lane Katy, TX 77493 $234,875 1,698 sq. ft. $138
2018-07-12 Single Family Traditional 22226 Oceanic Drive Katy, TX 77449 $209,000 2,072 sq. ft. 5,663 sq. ft. $101
2018-07-12 Single Family Traditional 22210 Kenlake Drive Katy, TX 77450 $203,900 1,864 sq. ft. 6,534 sq. ft. $109
2018-07-12 Single Family Traditional 5051 Meadowlark Lane Katy, TX 77493 $250,000 1,421 sq. ft. 18,731 sq. ft. $176
2018-07-12 Single Family Traditional 3414 Lantern Bay Lane Katy, TX 77449 $179,900 2,129 sq. ft. 7,841 sq. ft. $84
2018-07-12 Single Family Traditional 5110 Grand Phillips Lane Katy, TX 77450 $582,000 4,530 sq. ft. 16,117 sq. ft. $128
2018-07-12 Single Family Other Style 22806 Parkwalk Lane Katy, TX 77494 $639,000 4,062 sq. ft. 11,761 sq. ft. $157
2018-07-12 Single Family Traditional 26503 Park Point Lane Katy, TX 77494 $449,000 4,241 sq. ft. 10,019 sq. ft. $106
2018-07-12 Single Family Ranch; Traditional 10223 Radcliff Lake Drive Katy, TX 77494 $349,900 3,030 sq. ft. 7,841 sq. ft. $115
2018-07-12 Single Family Traditional 4911 Cadencrest Court Katy, TX 77494 $297,000 2,533 sq. ft. 10,890 sq. ft. $117
2018-07-12 Single Family Traditional 2503 Falcon Knoll Lane Katy, TX 77494 $242,900 2,369 sq. ft. 8,276 sq. ft. $103
2018-07-12 Single Family Traditional 5823 Ridgebluff Lane Katy, TX 77449 $189,500 2,330 sq. ft. 6,098 sq. ft. $81
2018-07-12 Single Family Traditional 9407 Amethyst Arbor Lane Katy, TX 77494 $365,000 2,881 sq. ft. 6,970 sq. ft. $127
2018-07-12 Single Family Traditional 2311 Prince Jeffry Lane Katy, TX 77493 $200,000 2,260 sq. ft. 6,534 sq. ft. $88
2018-07-12 Single Family Traditional 4906 Falls Canyon Court Katy, TX 77494 $397,000 2,783 sq. ft. 12,632 sq. ft. $143
2018-07-11 Single Family Traditional 7731 Courtney Manor Lane Katy, TX 77494 $575,000 4,819 sq. ft. 13,068 sq. ft. $119
2018-07-11 Single Family Traditional 2406 Zoe Fair Court Katy, TX 77494 $334,900 3,143 sq. ft. 7,405 sq. ft. $107
2018-07-11 Single Family Traditional 2315 Oak Sand Drive Katy, TX 77450 $259,500 2,292 sq. ft. 6,534 sq. ft. $113
2018-07-11 Single Family Traditional 20511 Serringdon Drive Katy, TX 77449 $250,000 2,710 sq. ft. 7,405 sq. ft. $92
2018-07-11 Single Family Traditional 3214 Sabine Spring Lane Katy, TX 77449 $229,900 2,095 sq. ft. 6,970 sq. ft. $110
2018-07-11 Single Family Traditional 4503 Wellington Grove Lane Katy, TX 77494 $310,000 2,611 sq. ft. 6,534 sq. ft. $119
2018-07-11 Single Family Contemporary/Modern; Traditional 4815 Wilderness Glen Court Katy, TX 77449 $219,999 2,493 sq. ft. 6,098 sq. ft. $88
2018-07-11 Single Family Traditional 1407 Lake Grayson Dr Katy, TX 77494 $448,000 3,356 sq. ft. 12,632 sq. ft. $133
2018-07-11 Single Family Traditional 1642 Leatherwood Drive Katy, TX 77450 $259,900 2,717 sq. ft. 7,405 sq. ft. $96
2018-07-11 Single Family Traditional 2002 Crossing Nexus Lane Katy, TX 77450 $235,000 2,536 sq. ft. 6,970 sq. ft. $93
2018-07-11 Single Family Traditional 2803 Winthrop Meadow Katy, TX 77494 $691,679 4,480 sq. ft. 10,890 sq. ft. $154
2018-07-11 Single Family Traditional 26539 Becker Pines Lane Katy, TX 77494 $300,000 2,626 sq. ft. 6,534 sq. ft. $114
2018-07-11 Single Family Traditional 22607 Auburn Valley Lane Katy, TX 77449 $239,000 2,738 sq. ft. 5,663 sq. ft. $87
2018-07-11 Single Family Traditional 711 Fork Court Katy, TX 77450 $105,000 1,439 sq. ft. 7,405 sq. ft. $73
2018-07-11 Single Family Traditional 20122 Wide Creek Court Katy, TX 77449 $219,500 2,512 sq. ft. 6,970 sq. ft. $87
2018-07-11 Single Family Traditional 1407 Elden Hills Way Katy, TX 77494 $319,888 2,993 sq. ft. 6,534 sq. ft. $107
2018-07-11 Single Family Traditional 23206 Ruspino Shores Place Katy, TX 77493 $349,500 3,409 sq. ft. 7,841 sq. ft. $103
2018-07-11 Single Family Traditional 6123 Starbrook Creek Drive Katy, TX 77494 $229,900 2,349 sq. ft. 5,227 sq. ft. $98
2018-07-11 Single Family Traditional 22214 Woodrose Drive Katy, TX 77450 $169,900 2,030 sq. ft. 7,841 sq. ft. $84
2018-07-11 Single Family Traditional 4107 Winding Point Lane Katy, TX 77494 $550,000 5,231 sq. ft. 16,553 sq. ft. $105
2018-07-11 Single Family Traditional 23318 Andorra Falls Trace Katy, TX 77449 $347,900 2,187 sq. ft. 6,970 sq. ft. $159
2018-07-11 Single Family Traditional 29018 Davenport Drive Katy, TX 77494 $300,000 2,650 sq. ft. 7,405 sq. ft. $113
2018-07-11 Single Family Traditional 23006 Governorshire Drive Katy, TX 77450 $299,000 3,323 sq. ft. 7,841 sq. ft. $90
2018-07-11 Single Family Traditional 2315 Wittman Court Katy, TX 77450 $229,000 2,264 sq. ft. 6,970 sq. ft. $101
2018-07-11 Single Family Traditional 5311 Center Village Drive Katy, TX 77494 $483,000 3,965 sq. ft. 10,890 sq. ft. $122
2018-07-11 Single Family Traditional 4718 Middleoak Grove Lane Katy, TX 77494 $468,999 3,785 sq. ft. 9,583 sq. ft. $124
2018-07-11 Single Family Traditional 19827 Cannon Fire Drive Katy, TX 77449 $169,500 1,468 sq. ft. 5,663 sq. ft. $115
2018-07-11 Single Family Traditional 2610 Walnut Crest Drive Katy, TX 77494 $495,000 4,219 sq. ft. 8,276 sq. ft. $117
2018-07-11 Single Family Traditional 27902 Iberville Glen Drive Katy, TX 77494 $399,900 3,548 sq. ft. 10,019 sq. ft. $113
2018-07-11 Single Family Traditional 23546 Deep Cliff Drive Katy, TX 77494 $247,500 2,132 sq. ft. 8,276 sq. ft. $116
2018-07-11 Single Family Traditional 9727 Eagle Peak Court Katy, TX 77494 $315,000 2,764 sq. ft. 7,405 sq. ft. $114
2018-07-10 Single Family Traditional 22514 Bridgehaven Drive Katy, TX 77494 $510,000 3,759 sq. ft. 8,712 sq. ft. $136
2018-07-10 Single Family Traditional 20702 Smokey Sage Drive Katy, TX 77450 $244,000 2,104 sq. ft. 6,970 sq. ft. $116
2018-07-10 Single Family Traditional 2214 Castell Manor Drive Katy, TX 77494 $450,000 4,105 sq. ft. 9,148 sq. ft. $110
2018-07-10 Single Family Traditional 9407 Herons Grove Ln Lane Katy, TX 77494 $313,000 2,611 sq. ft. 6,970 sq. ft. $120
2018-07-10 Single Family Colonial 3650 Carolina Canyon Court Katy, TX 77449 $249,000 2,400 sq. ft. 7,841 sq. ft. $104
2018-07-10 Single Family Traditional 25323 Sierra Woods Lane Katy, TX 77494 $240,000 2,587 sq. ft. 6,534 sq. ft. $93
2018-07-10 Single Family Traditional 4827 Terrance Fall Drive Katy, TX 77494 $340,000 2,332 sq. ft. 6,970 sq. ft. $146
2018-07-10 Single Family Traditional 22510 Crownfield Lane Katy, TX 77450 $325,000 2,529 sq. ft. 7,405 sq. ft. $129
2018-07-10 Single Family Traditional 3123 Latrobe Lane Katy, TX 77450 $375,000 3,374 sq. ft. 10,890 sq. ft. $111
2018-07-10 Single Family Traditional 20007 Still Manor Court Katy, TX 77449 $225,000 2,769 sq. ft. 6,970 sq. ft. $81
2018-07-10 Single Family Contemporary/Modern 2614 Cotton Drive Katy, TX 77493 $339,990 2,224 sq. ft. $153
2018-07-10 Single Family Traditional 3626 Daintree Park Drive Katy, TX 77494 $209,990 1,587 sq. ft. 6,098 sq. ft. $132
2018-07-10 Single Family Traditional 19919 Arbor Creek Drive Katy, TX 77449 $238,000 3,083 sq. ft. 8,276 sq. ft. $77
2018-07-10 Single Family Traditional 22806 Market Square Lane Katy, TX 77449 $159,995 1,529 sq. ft. 6,098 sq. ft. $105
2018-07-10 Single Family Traditional 6539 Woodleaf Lake Loop Katy, TX 77493 $503,910 3,549 sq. ft. $142
2018-07-10 Single Family Traditional 23314 Grand Meadows Drive Katy, TX 77494 $310,000 2,638 sq. ft. 7,841 sq. ft. $118
2018-07-10 Single Family Traditional 3307 Wrangler Sky Court Katy, TX 77494 $779,000 5,056 sq. ft. 12,197 sq. ft. $154
2018-07-10 Single Family Traditional 7310 Settlers Way Katy, TX 77493 $724,900 4,931 sq. ft. 13,068 sq. ft. $147
2018-07-10 Single Family Traditional 2210 Merrill Hills Circle Katy, TX 77450 $450,000 4,216 sq. ft. 9,148 sq. ft. $107
2018-07-10 Single Family Traditional 1819 Carriage Oaks Lane Katy, TX 77494 $408,990 3,847 sq. ft. $106
2018-07-10 Single Family Traditional 6911 Pembrough Lane Katy, TX 77494 $215,000 2,096 sq. ft. 11,326 sq. ft. $103
2018-07-10 Single Family Traditional 21518 Santa Clara Drive Katy, TX 77450 $359,000 2,879 sq. ft. 6,098 sq. ft. $125
2018-07-10 Single Family Traditional 9981 Norhill Heights Lane Katy, TX 77423 $299,900 2,674 sq. ft. 6,098 sq. ft. $112
2018-07-10 Single Family Traditional 6307 Nectar Grove Court Katy, TX 77493 $383,000 3,561 sq. ft. 10,890 sq. ft. $108
2018-07-10 Single Family Traditional 29102 Bentford Manor Court Katy, TX 77494 $335,000 3,094 sq. ft. 9,148 sq. ft. $108
2018-07-10 Single Family Traditional 3010 View Valley Trail Katy, TX 77493 $240,000 3,260 sq. ft. 5,227 sq. ft. $74
2018-07-10 Single Family Traditional 20630 Sage Rain Court Katy, TX 77449 $218,500 2,157 sq. ft. 4,792 sq. ft. $101
2018-07-10 Single Family Ranch; Traditional 3847 Silverhawk Drive Katy, TX 77449 $185,000 1,502 sq. ft. 6,534 sq. ft. $123
2018-07-10 Single Family Traditional 3110 Balch Springs Lane Katy, TX 77449 $198,000 1,849 sq. ft. 6,098 sq. ft. $107
2018-07-10 Single Family Traditional 19418 Bear Meadow Lane Katy, TX 77449 $229,000 2,317 sq. ft. 7,405 sq. ft. $99
2018-07-10 Single Family Traditional 20511 Morning Creek Drive Katy, TX 77450 $379,000 3,659 sq. ft. 8,276 sq. ft. $104
2018-07-09 Single Family Traditional 2707 Winthrop Meadow Way Katy, TX 77494 $674,999 4,714 sq. ft. 16,117 sq. ft. $143
2018-07-09 Single Family Traditional 20047 Fort Stanton Drive Katy, TX 77449 $198,000 2,090 sq. ft. 6,098 sq. ft. $95
2018-07-09 Single Family Traditional 26318 Richwood Oaks Drive Katy, TX 77494 $244,500 2,390 sq. ft. 4,792 sq. ft. $102
2018-07-09 Single Family Traditional 20819 Brodie Lane Katy, TX 77449 $205,000 1,588 sq. ft. 8,276 sq. ft. $129
2018-07-09 Single Family Traditional 3314 Clear Water Park Drive Katy, TX 77450 $533,000 3,602 sq. ft. 16,988 sq. ft. $148
2018-07-09 Single Family Traditional 24214 Emory Green Street Katy, TX 77493 $214,990 2,251 sq. ft. 6,098 sq. ft. $96
2018-07-09 Single Family Traditional 3823 Harris Mill Drive Katy, TX 77449 $199,995 2,690 sq. ft. 6,534 sq. ft. $74
2018-07-09 Single Family Contemporary/Modern; Mediterranean; Traditional 26303 Norwhich Valley Ct Katy, TX 77494 $1,370,000 5,822 sq. ft. 23,522 sq. ft. $235
2018-07-09 Single Family Traditional 24314 Yelverton Glen Drive Katy, TX 77493 $229,500 1,986 sq. ft. 8,276 sq. ft. $116
2018-07-09 Single Family Traditional 5010 Hickory Burl Court Katy, TX 77449 $205,990 2,614 sq. ft. 4,792 sq. ft. $79
2018-07-09 Single Family Traditional 3349 Zubin Lane Katy, TX 77493 $175,000 1,599 sq. ft. 6,534 sq. ft. $109
2018-07-09 Single Family Traditional 6503 Woodleaf Lake Loop Katy, TX 77493 $538,692 3,904 sq. ft. $138
2018-07-09 Single Family Traditional 6922 Russet Oak Katy, TX 77493 $412,521 3,096 sq. ft. 8,276 sq. ft. $133
2018-07-09 Single Family Traditional 24507 Red Bluff Trail Katy, TX 77494 $350,000 3,501 sq. ft. 6,970 sq. ft. $100
2018-07-09 Single Family Traditional 6703 Terania Katy, TX 77493 $339,100 2,363 sq. ft. 9,583 sq. ft. $144
2018-07-09 Single Family Traditional 23703 Oakdale Cliff Katy, TX 77493 $349,000 2,746 sq. ft. 10,019 sq. ft. $127
2018-07-09 Single Family Traditional 3336 Jessica Court Katy, TX 77493 $220,000 2,092 sq. ft. 6,534 sq. ft. $105
2018-07-09 Single Family Traditional 19338 Cypress River Drive Katy, TX 77449 $135,000 1,197 sq. ft. 4,792 sq. ft. $113
2018-07-09 Single Family Traditional 6402 Deer Meadow Lane Katy, TX 77493 $292,500 2,309 sq. ft. 8,712 sq. ft. $127
2018-07-09 Single Family Traditional 19918 Wedgewood Gable Way Katy, TX 77449 $228,990 2,667 sq. ft. $86
2018-07-09 Single Family Traditional 20007 Wedgewood Gable Way Katy, TX 77449 $215,990 2,070 sq. ft. $104
2018-07-09 Single Family Traditional 2659 Cyrus Hill Drive Katy, TX 77449 $185,000 2,088 sq. ft. 4,356 sq. ft. $89
2018-07-09 Single Family Traditional 2319 Oxford Brook Court Katy, TX 77493 $199,000 2,125 sq. ft. 7,405 sq. ft. $94
2018-07-09 Single Family Traditional 20439 Blue Beech Drive Katy, TX 77449 $184,000 1,590 sq. ft. 4,356 sq. ft. $116
2018-07-09 Single Family Traditional 23919 Providence Glen Trail Katy, TX 77493 $314,710 2,500 sq. ft. 5,663 sq. ft. $126
2018-07-09 Single Family Traditional 5106 Avondale Rise Street Katy, TX 77493 $249,995 2,130 sq. ft. $117
2018-07-09 Single Family Traditional 23827 Providence Glen Trail Katy, TX 77493 $264,840 1,755 sq. ft. 5,663 sq. ft. $151
2018-07-09 Single Family Traditional 1514 Park Wind Drive Katy, TX 77450 $240,000 1,740 sq. ft. 9,583 sq. ft. $138
2018-07-09 Single Family Contemporary/Modern 3506 Single Ridge Way Katy, TX 77493 $228,000 2,459 sq. ft. 6,098 sq. ft. $93
2018-07-09 Single Family Traditional 2746 Rice Mill Avenue Katy, TX 77493 $272,000 2,901 sq. ft. 5,663 sq. ft. $94
2018-07-08 Single Family Traditional 1130 Shillington Drive Katy, TX 77450 $309,000 2,846 sq. ft. 8,712 sq. ft. $109
2018-07-08 Single Family Traditional 27710 Merchant Hills Lane Katy, TX 77494 $490,000 3,775 sq. ft. 9,583 sq. ft. $130
2018-07-08 Single Family Ranch 29126 Bentford Manor Court Katy, TX 77494 $273,000 2,308 sq. ft. 6,098 sq. ft. $118
2018-07-08 Single Family Traditional 6615 Hollow Bay Court Katy, TX 77493 $454,847 3,916 sq. ft. 10,454 sq. ft. $116
2018-07-08 Single Family Traditional 6335 Lucinda Meadows Drive Katy, TX 77449 $162,000 1,320 sq. ft. 5,227 sq. ft. $123
2018-07-08 Single Family Traditional 3207 Tall Sycamore Trail Katy, TX 77493 $226,000 2,311 sq. ft. 6,098 sq. ft. $98
2018-07-08 Single Family Ranch 22726 Cascade Springs Drive Katy, TX 77494 $263,000 2,114 sq. ft. 6,534 sq. ft. $124
2018-07-08 Single Family Traditional 22902 Jamie Brook Lane Katy, TX 77494 $525,000 4,314 sq. ft. 10,454 sq. ft. $122
2018-07-08 Single Family Traditional 19522 Rum River Court Katy, TX 77449 $185,000 1,812 sq. ft. 5,663 sq. ft. $102
2018-07-08 Single Family Traditional 9615 Moonstone Mist Lane Katy, TX 77494 $325,000 2,968 sq. ft. 8,276 sq. ft. $110
2018-07-08 Single Family Traditional 19759 Twin Canyon Court Katy, TX 77450 $190,000 1,717 sq. ft. 5,663 sq. ft. $111
2018-07-07 Single Family Traditional 7003 Autumn Flowers Drive Katy, TX 77449 $173,000 1,631 sq. ft. 8,712 sq. ft. $106
2018-07-07 Single Family Traditional 3315 Reston Landing Lane Katy, TX 77494 $550,000 4,331 sq. ft. 8,712 sq. ft. $127
2018-07-07 Single Family Traditional 26606 Becker Pines Lane Katy, TX 77494 $294,900 2,586 sq. ft. 7,405 sq. ft. $114
2018-07-07 Single Family Traditional 6026 Dover Creek Lane Katy, TX 77494 $277,900 2,636 sq. ft. 7,841 sq. ft. $105
2018-07-07 Single Family Traditional 2306 Crossmill Lane Katy, TX 77450 $215,000 2,208 sq. ft. 6,534 sq. ft. $97
2018-07-07 Single Family Traditional 25622 Ellerbe Springs Ln Katy, TX 77494 $800,000 4,926 sq. ft. 11,326 sq. ft. $162
2018-07-07 Single Family Traditional 23322 Greenrush Drive Katy, TX 77494 $325,000 2,627 sq. ft. 6,970 sq. ft. $124
2018-07-07 Single Family Traditional 3310 Brinton Trails Lane Katy, TX 77494 $299,800 2,427 sq. ft. 6,970 sq. ft. $124
2018-07-07 Single Family Traditional 3014 Malope Ranch Drive Katy, TX 77494 $165,000 1,181 sq. ft. 4,792 sq. ft. $140
2018-07-07 Single Family Traditional 22443 Water Edge Lane Katy, TX 77494 $399,000 3,496 sq. ft. 9,583 sq. ft. $114
2018-07-07 Single Family Traditional 3703 Victory Terrace Lane Katy, TX 77450 $365,000 3,201 sq. ft. 8,276 sq. ft. $114
2018-07-07 Single Family Traditional 2535 Northern Great White Crt Katy, TX 77449 $305,000 3,937 sq. ft. 6,534 sq. ft. $77
2018-07-07 Single Family Traditional 28815 Crested Butte Drive Katy, TX 77494 $289,900 2,621 sq. ft. 6,534 sq. ft. $111
2018-07-07 Single Family Traditional 24103 Adobe Ridge Lane Katy, TX 77493 $242,000 2,206 sq. ft. 6,098 sq. ft. $110
2018-07-07 Single Family Traditional 26603 Fielder Brook Lane Katy, TX 77494 $218,000 2,218 sq. ft. 7,841 sq. ft. $98
2018-07-07 Single Family Traditional 4306 Falcon Meadow Drive Katy, TX 77449 $159,553 1,436 sq. ft. 6,534 sq. ft. $111
2018-07-07 Single Family Traditional 1902 East Avenue Katy, TX 77493 $325,000 1,188 sq. ft. 43,560 sq. ft. $274
2018-07-06 Single Family Traditional 20218 Avery Point Drive Katy, TX 77449 $189,000 1,959 sq. ft. 5,663 sq. ft. $96
2018-07-06 Single Family Traditional 25503 Millbrook Bend Lane Katy, TX 77494 $798,888 11,326 sq. ft.
2018-07-06 Single Family Traditional 19410 Buckland Park Drive Katy, TX 77449 $185,000 2,481 sq. ft. 5,663 sq. ft. $75
2018-07-06 Single Family Other Style 2214 Chelsea Ridge Court Katy, TX 77450 $349,999 3,509 sq. ft. 7,841 sq. ft. $100
2018-07-06 Single Family Traditional 2923 Hollinwell Drive Katy, TX 77450 $420,000 4,133 sq. ft. 12,197 sq. ft. $102
2018-07-06 Single Family Traditional 19803 Plantation Grove Trail Trail Katy, TX 77449 $160,000 1,679 sq. ft. 5,227 sq. ft. $95
2018-07-06 Single Family Traditional 3322 Mystic Shadow Lane Katy, TX 77494 $560,000 4,374 sq. ft. 8,712 sq. ft. $128
2018-07-06 Single Family Traditional 23615 Windhurst Katy, TX 77494 $339,900 2,825 sq. ft. 9,148 sq. ft. $120
2018-07-06 Single Family Traditional 2610 Coastal Trail Katy, TX 77493 $516,832 3,776 sq. ft. 9,148 sq. ft. $137
2018-07-06 Single Family Traditional 29423 Pewter Run Lane Katy, TX 77494 $432,945 4,000 sq. ft. $108
2018-07-06 Single Family Traditional 29426 Pewter Run Lane Katy, TX 77494 $445,794 3,894 sq. ft. $114
2018-07-06 Single Family Contemporary/Modern 26634 Boulder Cove Court Katy, TX 77494 $329,000 3,347 sq. ft. 9,583 sq. ft. $98
2018-07-06 Single Family Traditional 1106 Wildwood Lane Katy, TX 77494 $365,000 2,875 sq. ft. 10,454 sq. ft. $127
2018-07-06 Single Family Traditional 3743 Rocky Ledge Lane Katy, TX 77494 $270,000 2,382 sq. ft. 6,534 sq. ft. $113
2018-07-06 Single Family Traditional 25019 Abbotshire Court Katy, TX 77494 $950,000 5,344 sq. ft. 19,166 sq. ft. $178
2018-07-06 Single Family Traditional 29419 Pewter Run Lane Katy, TX 77494 $429,315 3,916 sq. ft. $110
2018-07-06 Single Family Traditional 19734 Bluff Canyon Way Katy, TX 77450 $299,900 2,477 sq. ft. 6,098 sq. ft. $121
2018-07-06 Single Family Traditional 20723 Footstep Path Katy, TX 77449 $224,155 1,656 sq. ft. $135
2018-07-06 Single Family Traditional 24410 Cornell Park Lane Katy, TX 77494 $269,900 3,600 sq. ft. 5,663 sq. ft. $75
2018-07-06 Single Family Traditional 25311 Melody Oaks Lane Katy, TX 77494 $221,500 1,634 sq. ft. 6,098 sq. ft. $136
2018-07-06 Single Family Traditional 6403 Holly Canyon Court Katy, TX 77450 $432,000 3,905 sq. ft. 11,761 sq. ft. $111
2018-07-06 Single Family Traditional 4202 Stonecroft Circle Katy, TX 77450 $475,000 3,733 sq. ft. 8,712 sq. ft. $127
2018-07-06 Single Family Traditional 5426 Mersea Drive Katy, TX 77449 $180,000 2,638 sq. ft. 6,970 sq. ft. $68
2018-07-06 Single Family Traditional 20711 Castlemills Court Katy, TX 77450 $249,500 2,382 sq. ft. 7,405 sq. ft. $105
2018-07-06 Single Family Traditional 20230 Laurel Lock Drive Katy, TX 77450 $298,000 2,827 sq. ft. 6,970 sq. ft. $105
2018-07-06 Single Family Other Style 2919 Elm Circle Katy, TX 77493 $279,000 3,815 sq. ft. 16,117 sq. ft. $73
2018-07-06 Single Family Traditional 2219 Merrill Hills Circle Katy, TX 77450 $428,700 3,600 sq. ft. 10,890 sq. ft. $119
2018-07-06 Single Family Traditional 27015 Stonebury Heights Lane Katy, TX 77494 $325,000 2,766 sq. ft. 5,663 sq. ft. $118
2018-07-06 Single Family Traditional 323 Imperial Bend Lane Katy, TX 77493 $699,000 4,816 sq. ft. 87,120 sq. ft. $145
2018-07-06 Single Family Traditional 2330 Karankawa Katy, TX 77493 $470,000 2,574 sq. ft. 8,712 sq. ft. $183
2018-07-06 Single Family Traditional 28130 Helmsman Knolls Drive Katy, TX 77494 $310,000 3,012 sq. ft. 7,841 sq. ft. $103
2018-07-06 Single Family Traditional 22410 Sierra Lake Court Katy, TX 77494 $299,999 2,412 sq. ft. 9,148 sq. ft. $124
2018-07-06 Single Family Traditional 19202 Delta Queen Drive Katy, TX 77449 $190,000 2,007 sq. ft. 7,841 sq. ft. $95
2018-07-06 Single Family Traditional 19238 Dillsbury Court Katy, TX 77449 $173,500 1,527 sq. ft. 5,663 sq. ft. $114
2018-07-06 Single Family Traditional 6306 Piedra Negras Court Katy, TX 77450 $235,000 1,957 sq. ft. 7,405 sq. ft. $120
2018-07-06 Single Family Traditional 23119 Prairie Pebble Court Katy, TX 77494 $365,000 2,996 sq. ft. 14,375 sq. ft. $122
2018-07-06 Single Family Other Style 614 Windsor Glen Drive Katy, TX 77450 $270,000 2,555 sq. ft. 8,712 sq. ft. $106
2018-07-06 Single Family Traditional 2903 Morton Cove Lane Katy, TX 77449 $205,000 2,915 sq. ft. 4,792 sq. ft. $70
2018-07-06 Single Family Traditional 6116 Marble Hollow Lane Katy, TX 77450 $250,000 2,914 sq. ft. 9,148 sq. ft. $86